sensor_id;sensor_type;location;lat;lon;timestamp;pressure;altitude;pressure_sealevel;temperature;humidity
60642;BME280;46837;52.446;-1.930;2023-04-15T00:00:09;99700.86;;;6.03;82.42
60642;BME280;46837;52.446;-1.930;2023-04-15T00:01:09;99705.36;;;6.01;82.45
60642;BME280;46837;52.446;-1.930;2023-04-15T00:02:13;99707.22;;;6.01;82.51
60642;BME280;46837;52.446;-1.930;2023-04-15T00:03:09;99708.86;;;6.02;82.42
60642;BME280;46837;52.446;-1.930;2023-04-15T00:04:09;99707.74;;;6.00;82.57
60642;BME280;46837;52.446;-1.930;2023-04-15T00:05:09;99708.08;;;6.01;82.63
60642;BME280;46837;52.446;-1.930;2023-04-15T00:06:09;99707.81;;;6.01;82.49
60642;BME280;46837;52.446;-1.930;2023-04-15T00:07:09;99709.86;;;6.00;82.49
60642;BME280;46837;52.446;-1.930;2023-04-15T00:08:09;99705.20;;;6.00;82.47
60642;BME280;46837;52.446;-1.930;2023-04-15T00:09:09;99711.12;;;6.01;82.44
60642;BME280;46837;52.446;-1.930;2023-04-15T00:10:09;99712.96;;;6.01;82.48
60642;BME280;46837;52.446;-1.930;2023-04-15T00:11:09;99715.28;;;5.99;82.43
60642;BME280;46837;52.446;-1.930;2023-04-15T00:12:09;99714.53;;;6.00;82.50
60642;BME280;46837;52.446;-1.930;2023-04-15T00:13:09;99716.58;;;5.99;82.54
60642;BME280;46837;52.446;-1.930;2023-04-15T00:14:09;99719.04;;;5.97;82.56
60642;BME280;46837;52.446;-1.930;2023-04-15T00:15:09;99720.62;;;5.96;82.70
60642;BME280;46837;52.446;-1.930;2023-04-15T00:16:09;99719.69;;;5.93;82.87
60642;BME280;46837;52.446;-1.930;2023-04-15T00:17:09;99722.59;;;5.95;82.90
60642;BME280;46837;52.446;-1.930;2023-04-15T00:18:09;99724.34;;;5.93;82.84
60642;BME280;46837;52.446;-1.930;2023-04-15T00:19:09;99726.90;;;5.92;82.93
60642;BME280;46837;52.446;-1.930;2023-04-15T00:20:09;99722.67;;;5.91;82.95
60642;BME280;46837;52.446;-1.930;2023-04-15T00:21:09;99723.63;;;5.90;83.01
60642;BME280;46837;52.446;-1.930;2023-04-15T00:22:09;99729.00;;;5.91;83.03
60642;BME280;46837;52.446;-1.930;2023-04-15T00:23:09;99731.44;;;5.90;83.04
60642;BME280;46837;52.446;-1.930;2023-04-15T00:24:09;99728.17;;;5.86;83.10
60642;BME280;46837;52.446;-1.930;2023-04-15T00:25:09;99731.13;;;5.88;83.11
60642;BME280;46837;52.446;-1.930;2023-04-15T00:26:09;99730.84;;;5.87;83.13
60642;BME280;46837;52.446;-1.930;2023-04-15T00:27:09;99736.43;;;5.87;83.14
60642;BME280;46837;52.446;-1.930;2023-04-15T00:28:09;99735.39;;;5.83;83.20
60642;BME280;46837;52.446;-1.930;2023-04-15T00:29:09;99734.07;;;5.85;83.25
60642;BME280;46837;52.446;-1.930;2023-04-15T00:30:09;99736.35;;;5.85;83.13
60642;BME280;46837;52.446;-1.930;2023-04-15T00:31:09;99744.06;;;5.83;83.19
60642;BME280;46837;52.446;-1.930;2023-04-15T00:32:09;99738.58;;;5.83;83.20
60642;BME280;46837;52.446;-1.930;2023-04-15T00:33:09;99745.70;;;5.84;83.27
60642;BME280;46837;52.446;-1.930;2023-04-15T00:34:09;99743.74;;;5.83;83.25
60642;BME280;46837;52.446;-1.930;2023-04-15T00:35:09;99744.23;;;5.82;83.32
60642;BME280;46837;52.446;-1.930;2023-04-15T00:36:09;99745.15;;;5.82;83.41
60642;BME280;46837;52.446;-1.930;2023-04-15T00:37:09;99747.53;;;5.86;83.32
60642;BME280;46837;52.446;-1.930;2023-04-15T00:38:09;99742.63;;;5.84;83.30
60642;BME280;46837;52.446;-1.930;2023-04-15T00:39:09;99749.30;;;5.84;83.32
60642;BME280;46837;52.446;-1.930;2023-04-15T00:40:12;99747.69;;;5.82;83.42
60642;BME280;46837;52.446;-1.930;2023-04-15T00:41:09;99751.22;;;5.83;83.41
60642;BME280;46837;52.446;-1.930;2023-04-15T00:42:09;99751.07;;;5.80;83.54
60642;BME280;46837;52.446;-1.930;2023-04-15T00:43:09;99751.14;;;5.81;83.51
60642;BME280;46837;52.446;-1.930;2023-04-15T00:44:09;99756.80;;;5.78;83.57
60642;BME280;46837;52.446;-1.930;2023-04-15T00:45:09;99759.04;;;5.77;83.76
60642;BME280;46837;52.446;-1.930;2023-04-15T00:46:09;99760.70;;;5.78;83.66
60642;BME280;46837;52.446;-1.930;2023-04-15T00:47:09;99760.23;;;5.79;83.68
60642;BME280;46837;52.446;-1.930;2023-04-15T00:48:09;99759.51;;;5.78;83.61
60642;BME280;46837;52.446;-1.930;2023-04-15T00:49:09;99758.80;;;5.78;83.59
60642;BME280;46837;52.446;-1.930;2023-04-15T00:50:09;99765.06;;;5.75;83.54
60642;BME280;46837;52.446;-1.930;2023-04-15T00:51:09;99767.63;;;5.74;83.69
60642;BME280;46837;52.446;-1.930;2023-04-15T00:52:09;99763.25;;;5.72;83.75
60642;BME280;46837;52.446;-1.930;2023-04-15T00:53:09;99764.18;;;5.71;83.86
60642;BME280;46837;52.446;-1.930;2023-04-15T00:54:09;99768.99;;;5.71;83.81
60642;BME280;46837;52.446;-1.930;2023-04-15T00:55:09;99770.84;;;5.68;83.93
60642;BME280;46837;52.446;-1.930;2023-04-15T00:56:09;99772.26;;;5.68;84.02
60642;BME280;46837;52.446;-1.930;2023-04-15T00:57:09;99770.18;;;5.67;84.01
60642;BME280;46837;52.446;-1.930;2023-04-15T00:58:09;99774.71;;;5.70;84.01
60642;BME280;46837;52.446;-1.930;2023-04-15T00:59:10;99776.67;;;5.70;84.01
60642;BME280;46837;52.446;-1.930;2023-04-15T01:00:09;99779.98;;;5.70;84.02
60642;BME280;46837;52.446;-1.930;2023-04-15T01:01:09;99777.02;;;5.69;83.95
60642;BME280;46837;52.446;-1.930;2023-04-15T01:02:09;99783.43;;;5.65;84.14
60642;BME280;46837;52.446;-1.930;2023-04-15T01:03:09;99782.46;;;5.63;84.38
60642;BME280;46837;52.446;-1.930;2023-04-15T01:04:09;99784.89;;;5.65;84.35
60642;BME280;46837;52.446;-1.930;2023-04-15T01:05:09;99789.02;;;5.66;84.31
60642;BME280;46837;52.446;-1.930;2023-04-15T01:06:09;99790.49;;;5.66;84.26
60642;BME280;46837;52.446;-1.930;2023-04-15T01:07:09;99792.81;;;5.66;84.25
60642;BME280;46837;52.446;-1.930;2023-04-15T01:08:09;99794.75;;;5.65;84.26
60642;BME280;46837;52.446;-1.930;2023-04-15T01:09:09;99795.31;;;5.63;84.42
60642;BME280;46837;52.446;-1.930;2023-04-15T01:10:09;99798.66;;;5.62;84.46
60642;BME280;46837;52.446;-1.930;2023-04-15T01:11:09;99798.05;;;5.61;84.50
60642;BME280;46837;52.446;-1.930;2023-04-15T01:12:09;99798.33;;;5.62;84.50
60642;BME280;46837;52.446;-1.930;2023-04-15T01:13:09;99803.28;;;5.63;84.54
60642;BME280;46837;52.446;-1.930;2023-04-15T01:14:09;99804.96;;;5.66;84.47
60642;BME280;46837;52.446;-1.930;2023-04-15T01:15:09;99808.62;;;5.69;84.37
60642;BME280;46837;52.446;-1.930;2023-04-15T01:16:09;99808.68;;;5.65;84.34
60642;BME280;46837;52.446;-1.930;2023-04-15T01:17:09;99812.48;;;5.62;84.64
60642;BME280;46837;52.446;-1.930;2023-04-15T01:18:09;99811.98;;;5.62;84.74
60642;BME280;46837;52.446;-1.930;2023-04-15T01:19:09;99817.79;;;5.66;84.77
60642;BME280;46837;52.446;-1.930;2023-04-15T01:20:09;99814.46;;;5.67;84.69
60642;BME280;46837;52.446;-1.930;2023-04-15T01:21:09;99818.76;;;5.71;84.63
60642;BME280;46837;52.446;-1.930;2023-04-15T01:22:09;99819.69;;;5.75;84.50
60642;BME280;46837;52.446;-1.930;2023-04-15T01:23:09;99819.25;;;5.74;84.52
60642;BME280;46837;52.446;-1.930;2023-04-15T01:24:09;99819.97;;;5.79;84.60
60642;BME280;46837;52.446;-1.930;2023-04-15T01:25:14;99821.06;;;5.79;84.41
60642;BME280;46837;52.446;-1.930;2023-04-15T01:26:09;99824.27;;;5.80;84.42
60642;BME280;46837;52.446;-1.930;2023-04-15T01:27:09;99823.82;;;5.83;84.45
60642;BME280;46837;52.446;-1.930;2023-04-15T01:28:09;99827.95;;;5.86;84.30
60642;BME280;46837;52.446;-1.930;2023-04-15T01:29:09;99828.33;;;5.86;84.20
60642;BME280;46837;52.446;-1.930;2023-04-15T01:30:09;99827.74;;;5.83;84.22
60642;BME280;46837;52.446;-1.930;2023-04-15T01:31:12;99829.38;;;5.81;84.34
60642;BME280;46837;52.446;-1.930;2023-04-15T01:32:09;99833.02;;;5.81;84.50
60642;BME280;46837;52.446;-1.930;2023-04-15T01:33:09;99831.83;;;5.78;84.56
60642;BME280;46837;52.446;-1.930;2023-04-15T01:34:09;99830.21;;;5.72;84.88
60642;BME280;46837;52.446;-1.930;2023-04-15T01:35:09;99830.41;;;5.74;84.90
60642;BME280;46837;52.446;-1.930;2023-04-15T01:36:09;99832.64;;;5.74;84.76
60642;BME280;46837;52.446;-1.930;2023-04-15T01:37:09;99831.58;;;5.75;84.71
60642;BME280;46837;52.446;-1.930;2023-04-15T01:38:09;99834.56;;;5.76;84.68
60642;BME280;46837;52.446;-1.930;2023-04-15T01:39:09;99835.84;;;5.74;84.62
60642;BME280;46837;52.446;-1.930;2023-04-15T01:40:09;99841.23;;;5.75;84.77
60642;BME280;46837;52.446;-1.930;2023-04-15T01:41:09;99844.06;;;5.77;84.67
60642;BME280;46837;52.446;-1.930;2023-04-15T01:42:09;99846.90;;;5.74;84.73
60642;BME280;46837;52.446;-1.930;2023-04-15T01:43:09;99847.75;;;5.73;84.82
60642;BME280;46837;52.446;-1.930;2023-04-15T01:44:09;99852.45;;;5.73;84.91
60642;BME280;46837;52.446;-1.930;2023-04-15T01:45:09;99854.71;;;5.74;84.98
60642;BME280;46837;52.446;-1.930;2023-04-15T01:46:09;99851.25;;;5.76;84.93
60642;BME280;46837;52.446;-1.930;2023-04-15T01:47:09;99849.39;;;5.74;84.88
60642;BME280;46837;52.446;-1.930;2023-04-15T01:48:09;99854.58;;;5.73;85.18
60642;BME280;46837;52.446;-1.930;2023-04-15T01:49:09;99858.46;;;5.78;85.18
60642;BME280;46837;52.446;-1.930;2023-04-15T01:50:09;99855.33;;;5.77;85.15
60642;BME280;46837;52.446;-1.930;2023-04-15T01:51:09;99854.68;;;5.77;85.27
60642;BME280;46837;52.446;-1.930;2023-04-15T01:52:09;99859.11;;;5.79;85.29
60642;BME280;46837;52.446;-1.930;2023-04-15T01:53:09;99857.08;;;5.80;85.27
60642;BME280;46837;52.446;-1.930;2023-04-15T01:54:09;99855.85;;;5.81;85.23
60642;BME280;46837;52.446;-1.930;2023-04-15T01:55:09;99856.26;;;5.83;85.22
60642;BME280;46837;52.446;-1.930;2023-04-15T01:56:09;99856.59;;;5.80;85.31
60642;BME280;46837;52.446;-1.930;2023-04-15T01:57:09;99859.39;;;5.82;85.54
60642;BME280;46837;52.446;-1.930;2023-04-15T01:58:09;99857.50;;;5.79;85.67
60642;BME280;46837;52.446;-1.930;2023-04-15T01:59:09;99856.36;;;5.83;85.87
60642;BME280;46837;52.446;-1.930;2023-04-15T02:00:09;99859.76;;;5.84;85.69
60642;BME280;46837;52.446;-1.930;2023-04-15T02:01:09;99856.97;;;5.80;85.93
60642;BME280;46837;52.446;-1.930;2023-04-15T02:02:09;99858.66;;;5.84;86.09
60642;BME280;46837;52.446;-1.930;2023-04-15T02:03:09;99861.32;;;5.88;85.89
60642;BME280;46837;52.446;-1.930;2023-04-15T02:04:15;99859.99;;;5.89;85.91
60642;BME280;46837;52.446;-1.930;2023-04-15T02:05:09;99860.30;;;5.91;85.90
60642;BME280;46837;52.446;-1.930;2023-04-15T02:06:09;99866.72;;;5.93;85.90
60642;BME280;46837;52.446;-1.930;2023-04-15T02:07:09;99867.05;;;5.97;85.85
60642;BME280;46837;52.446;-1.930;2023-04-15T02:08:09;99865.34;;;5.99;85.53
60642;BME280;46837;52.446;-1.930;2023-04-15T02:09:09;99868.44;;;6.02;85.48
60642;BME280;46837;52.446;-1.930;2023-04-15T02:10:09;99868.09;;;6.04;85.37
60642;BME280;46837;52.446;-1.930;2023-04-15T02:11:09;99869.04;;;6.03;85.26
60642;BME280;46837;52.446;-1.930;2023-04-15T02:12:09;99871.77;;;6.00;85.36
60642;BME280;46837;52.446;-1.930;2023-04-15T02:13:09;99869.97;;;6.00;85.41
60642;BME280;46837;52.446;-1.930;2023-04-15T02:14:09;99874.39;;;5.98;85.40
60642;BME280;46837;52.446;-1.930;2023-04-15T02:15:09;99873.87;;;5.96;85.59
60642;BME280;46837;52.446;-1.930;2023-04-15T02:16:16;99874.37;;;5.96;85.63
60642;BME280;46837;52.446;-1.930;2023-04-15T02:17:10;99870.11;;;5.98;85.51
60642;BME280;46837;52.446;-1.930;2023-04-15T02:18:09;99868.41;;;6.01;85.52
60642;BME280;46837;52.446;-1.930;2023-04-15T02:19:09;99870.04;;;6.03;85.27
60642;BME280;46837;52.446;-1.930;2023-04-15T02:20:09;99874.25;;;6.06;85.25
60642;BME280;46837;52.446;-1.930;2023-04-15T02:21:09;99871.44;;;6.03;85.18
60642;BME280;46837;52.446;-1.930;2023-04-15T02:22:09;99873.01;;;6.01;85.41
60642;BME280;46837;52.446;-1.930;2023-04-15T02:23:09;99872.16;;;5.98;85.33
60642;BME280;46837;52.446;-1.930;2023-04-15T02:24:09;99879.11;;;5.98;85.35
60642;BME280;46837;52.446;-1.930;2023-04-15T02:25:09;99874.62;;;5.99;85.43
60642;BME280;46837;52.446;-1.930;2023-04-15T02:26:09;99874.26;;;5.97;85.30
60642;BME280;46837;52.446;-1.930;2023-04-15T02:27:09;99877.86;;;5.98;85.30
60642;BME280;46837;52.446;-1.930;2023-04-15T02:28:09;99880.35;;;5.98;85.19
60642;BME280;46837;52.446;-1.930;2023-04-15T02:29:09;99879.84;;;5.96;85.20
60642;BME280;46837;52.446;-1.930;2023-04-15T02:30:09;99881.13;;;5.92;85.26
60642;BME280;46837;52.446;-1.930;2023-04-15T02:31:09;99888.20;;;5.90;85.54
60642;BME280;46837;52.446;-1.930;2023-04-15T02:32:09;99891.60;;;5.88;85.58
60642;BME280;46837;52.446;-1.930;2023-04-15T02:33:09;99892.09;;;5.88;85.66
60642;BME280;46837;52.446;-1.930;2023-04-15T02:34:09;99895.75;;;5.87;85.63
60642;BME280;46837;52.446;-1.930;2023-04-15T02:35:09;99897.67;;;5.88;85.71
60642;BME280;46837;52.446;-1.930;2023-04-15T02:36:09;99897.60;;;5.88;85.60
60642;BME280;46837;52.446;-1.930;2023-04-15T02:37:10;99898.97;;;5.88;85.57
60642;BME280;46837;52.446;-1.930;2023-04-15T02:38:09;99897.63;;;5.86;85.56
60642;BME280;46837;52.446;-1.930;2023-04-15T02:39:09;99901.00;;;5.86;85.66
60642;BME280;46837;52.446;-1.930;2023-04-15T02:40:09;99898.38;;;5.85;85.71
60642;BME280;46837;52.446;-1.930;2023-04-15T02:41:09;99901.03;;;5.85;85.63
60642;BME280;46837;52.446;-1.930;2023-04-15T02:42:09;99897.89;;;5.85;85.67
60642;BME280;46837;52.446;-1.930;2023-04-15T02:43:09;99896.93;;;5.83;85.64
60642;BME280;46837;52.446;-1.930;2023-04-15T02:44:09;99899.82;;;5.84;85.62
60642;BME280;46837;52.446;-1.930;2023-04-15T02:45:09;99897.18;;;5.83;85.65
60642;BME280;46837;52.446;-1.930;2023-04-15T02:46:09;99898.32;;;5.83;85.62
60642;BME280;46837;52.446;-1.930;2023-04-15T02:47:09;99900.55;;;5.83;85.62
60642;BME280;46837;52.446;-1.930;2023-04-15T02:48:09;99899.83;;;5.81;85.63
60642;BME280;46837;52.446;-1.930;2023-04-15T02:49:09;99901.12;;;5.81;85.55
60642;BME280;46837;52.446;-1.930;2023-04-15T02:50:10;99904.39;;;5.79;85.59
60642;BME280;46837;52.446;-1.930;2023-04-15T02:51:11;99906.96;;;5.77;85.78
60642;BME280;46837;52.446;-1.930;2023-04-15T02:52:09;99906.94;;;5.76;85.91
60642;BME280;46837;52.446;-1.930;2023-04-15T02:53:09;99908.68;;;5.75;85.89
60642;BME280;46837;52.446;-1.930;2023-04-15T02:54:09;99910.08;;;5.75;85.98
60642;BME280;46837;52.446;-1.930;2023-04-15T02:55:09;99911.98;;;5.75;86.11
60642;BME280;46837;52.446;-1.930;2023-04-15T02:56:09;99913.66;;;5.76;
60642;BME280;46837;52.446;-1.930;2023-04-15T02:57:09;99910.98;;;5.77;86.02
60642;BME280;46837;52.446;-1.930;2023-04-15T02:58:09;99906.19;;;5.80;85.97
60642;BME280;46837;52.446;-1.930;2023-04-15T02:59:09;99907.86;;;5.79;85.90
60642;BME280;46837;52.446;-1.930;2023-04-15T03:00:09;99905.38;;;5.80;86.00
60642;BME280;46837;52.446;-1.930;2023-04-15T03:01:09;99903.19;;;5.78;86.08
60642;BME280;46837;52.446;-1.930;2023-04-15T03:02:09;99906.45;;;5.79;86.10
60642;BME280;46837;52.446;-1.930;2023-04-15T03:03:09;99908.71;;;5.81;86.08
60642;BME280;46837;52.446;-1.930;2023-04-15T03:04:09;99911.65;;;5.84;85.99
60642;BME280;46837;52.446;-1.930;2023-04-15T03:05:11;99911.34;;;5.86;85.80
60642;BME280;46837;52.446;-1.930;2023-04-15T03:06:09;99913.16;;;5.87;85.78
60642;BME280;46837;52.446;-1.930;2023-04-15T03:07:09;99918.61;;;5.88;85.77
60642;BME280;46837;52.446;-1.930;2023-04-15T03:08:09;99922.87;;;5.87;85.94
60642;BME280;46837;52.446;-1.930;2023-04-15T03:09:09;99927.55;;;5.91;86.01
60642;BME280;46837;52.446;-1.930;2023-04-15T03:10:09;99926.04;;;5.93;85.96
60642;BME280;46837;52.446;-1.930;2023-04-15T03:11:09;99925.79;;;5.97;85.83
60642;BME280;46837;52.446;-1.930;2023-04-15T03:12:09;99930.66;;;6.00;85.67
60642;BME280;46837;52.446;-1.930;2023-04-15T03:13:09;99933.52;;;6.02;85.73
60642;BME280;46837;52.446;-1.930;2023-04-15T03:14:09;99934.37;;;6.04;85.76
60642;BME280;46837;52.446;-1.930;2023-04-15T03:15:09;99935.62;;;6.04;85.68
60642;BME280;46837;52.446;-1.930;2023-04-15T03:16:09;99935.46;;;6.07;85.75
60642;BME280;46837;52.446;-1.930;2023-04-15T03:17:09;99940.13;;;6.08;85.63
60642;BME280;46837;52.446;-1.930;2023-04-15T03:18:09;99941.80;;;6.10;85.73
60642;BME280;46837;52.446;-1.930;2023-04-15T03:19:09;99942.89;;;6.14;85.64
60642;BME280;46837;52.446;-1.930;2023-04-15T03:20:09;99945.12;;;6.17;85.42
60642;BME280;46837;52.446;-1.930;2023-04-15T03:21:09;99949.79;;;6.17;85.45
60642;BME280;46837;52.446;-1.930;2023-04-15T03:22:09;99946.88;;;6.18;85.36
60642;BME280;46837;52.446;-1.930;2023-04-15T03:23:09;99950.04;;;6.19;85.48
60642;BME280;46837;52.446;-1.930;2023-04-15T03:24:09;99955.16;;;6.23;85.46
60642;BME280;46837;52.446;-1.930;2023-04-15T03:25:09;99955.84;;;6.22;85.30
60642;BME280;46837;52.446;-1.930;2023-04-15T03:26:09;99955.48;;;6.23;85.25
60642;BME280;46837;52.446;-1.930;2023-04-15T03:27:09;99958.46;;;6.27;85.25
60642;BME280;46837;52.446;-1.930;2023-04-15T03:28:09;99957.69;;;6.28;85.15
60642;BME280;46837;52.446;-1.930;2023-04-15T03:29:09;99962.13;;;6.28;85.17
60642;BME280;46837;52.446;-1.930;2023-04-15T03:30:09;99966.64;;;6.32;85.17
60642;BME280;46837;52.446;-1.930;2023-04-15T03:31:09;99965.23;;;6.31;85.12
60642;BME280;46837;52.446;-1.930;2023-04-15T03:32:09;99966.73;;;6.34;85.12
60642;BME280;46837;52.446;-1.930;2023-04-15T03:33:09;99968.78;;;6.33;85.04
60642;BME280;46837;52.446;-1.930;2023-04-15T03:34:09;99969.81;;;6.33;85.08
60642;BME280;46837;52.446;-1.930;2023-04-15T03:35:09;99968.75;;;6.36;85.00
60642;BME280;46837;52.446;-1.930;2023-04-15T03:36:09;99975.92;;;6.36;84.83
60642;BME280;46837;52.446;-1.930;2023-04-15T03:37:09;99972.50;;;6.36;84.91
60642;BME280;46837;52.446;-1.930;2023-04-15T03:38:09;99969.99;;;6.34;84.76
60642;BME280;46837;52.446;-1.930;2023-04-15T03:39:09;99978.57;;;6.34;84.73
60642;BME280;46837;52.446;-1.930;2023-04-15T03:40:09;99970.00;;;6.31;84.86
60642;BME280;46837;52.446;-1.930;2023-04-15T03:41:09;99976.68;;;6.32;84.89
60642;BME280;46837;52.446;-1.930;2023-04-15T03:42:09;99978.95;;;6.31;84.90
60642;BME280;46837;52.446;-1.930;2023-04-15T03:43:09;99976.55;;;6.34;84.84
60642;BME280;46837;52.446;-1.930;2023-04-15T03:44:09;99979.64;;;6.34;84.67
60642;BME280;46837;52.446;-1.930;2023-04-15T03:45:09;99975.39;;;6.29;84.58
60642;BME280;46837;52.446;-1.930;2023-04-15T03:46:09;99979.42;;;6.27;84.72
60642;BME280;46837;52.446;-1.930;2023-04-15T03:47:09;99984.10;;;6.25;84.71
60642;BME280;46837;52.446;-1.930;2023-04-15T03:48:09;99982.45;;;6.26;84.70
60642;BME280;46837;52.446;-1.930;2023-04-15T03:49:09;99984.75;;;6.22;84.61
60642;BME280;46837;52.446;-1.930;2023-04-15T03:50:09;99988.70;;;6.20;84.73
60642;BME280;46837;52.446;-1.930;2023-04-15T03:51:09;99991.90;;;6.18;84.72
60642;BME280;46837;52.446;-1.930;2023-04-15T03:52:09;99994.41;;;6.16;84.73
60642;BME280;46837;52.446;-1.930;2023-04-15T03:53:09;99997.80;;;6.14;84.90
60642;BME280;46837;52.446;-1.930;2023-04-15T03:54:09;99999.55;;;6.12;84.84
60642;BME280;46837;52.446;-1.930;2023-04-15T03:55:09;100000.01;;;6.13;84.91
60642;BME280;46837;52.446;-1.930;2023-04-15T03:56:09;100003.21;;;6.07;84.96
60642;BME280;46837;52.446;-1.930;2023-04-15T03:57:09;100004.85;;;6.05;85.03
60642;BME280;46837;52.446;-1.930;2023-04-15T03:58:09;100006.83;;;6.04;85.05
60642;BME280;46837;52.446;-1.930;2023-04-15T03:59:09;100009.15;;;6.03;85.13
60642;BME280;46837;52.446;-1.930;2023-04-15T04:00:09;100010.45;;;6.03;85.17
60642;BME280;46837;52.446;-1.930;2023-04-15T04:01:09;100014.41;;;6.01;85.14
60642;BME280;46837;52.446;-1.930;2023-04-15T04:02:09;100015.39;;;6.00;85.23
60642;BME280;46837;52.446;-1.930;2023-04-15T04:03:09;100017.56;;;5.97;85.24
60642;BME280;46837;52.446;-1.930;2023-04-15T04:04:09;100014.61;;;5.96;85.38
60642;BME280;46837;52.446;-1.930;2023-04-15T04:05:09;100023.38;;;5.95;85.40
60642;BME280;46837;52.446;-1.930;2023-04-15T04:06:09;100022.26;;;5.96;85.46
60642;BME280;46837;52.446;-1.930;2023-04-15T04:07:13;100024.64;;;5.93;85.53
60642;BME280;46837;52.446;-1.930;2023-04-15T04:08:09;100024.54;;;5.93;85.58
60642;BME280;46837;52.446;-1.930;2023-04-15T04:09:09;100024.52;;;5.95;85.67
60642;BME280;46837;52.446;-1.930;2023-04-15T04:10:09;100024.66;;;5.94;85.70
60642;BME280;46837;52.446;-1.930;2023-04-15T04:11:09;100022.94;;;5.95;85.70
60642;BME280;46837;52.446;-1.930;2023-04-15T04:12:09;100023.95;;;5.97;85.74
60642;BME280;46837;52.446;-1.930;2023-04-15T04:13:09;100020.47;;;5.97;85.65
60642;BME280;46837;52.446;-1.930;2023-04-15T04:14:09;100018.33;;;5.95;85.77
60642;BME280;46837;52.446;-1.930;2023-04-15T04:15:09;100020.31;;;5.97;85.82
60642;BME280;46837;52.446;-1.930;2023-04-15T04:16:09;100024.59;;;5.99;85.82
60642;BME280;46837;52.446;-1.930;2023-04-15T04:17:09;100017.55;;;5.99;85.72
60642;BME280;46837;52.446;-1.930;2023-04-15T04:18:09;100023.32;;;5.98;85.77
60642;BME280;46837;52.446;-1.930;2023-04-15T04:19:09;100023.43;;;6.01;85.86
60642;BME280;46837;52.446;-1.930;2023-04-15T04:20:09;100020.71;;;6.01;85.70
60642;BME280;46837;52.446;-1.930;2023-04-15T04:21:09;100022.01;;;6.03;85.69
60642;BME280;46837;52.446;-1.930;2023-04-15T04:22:09;100021.03;;;6.03;85.62
60642;BME280;46837;52.446;-1.930;2023-04-15T04:23:09;100022.66;;;6.03;85.59
60642;BME280;46837;52.446;-1.930;2023-04-15T04:24:09;100026.95;;;6.01;85.53
60642;BME280;46837;52.446;-1.930;2023-04-15T04:25:09;100027.66;;;6.01;85.45
60642;BME280;46837;52.446;-1.930;2023-04-15T04:26:09;100031.45;;;6.00;85.37
60642;BME280;46837;52.446;-1.930;2023-04-15T04:27:09;100032.00;;;5.98;85.36
60642;BME280;46837;52.446;-1.930;2023-04-15T04:28:09;100038.56;;;5.95;85.33
60642;BME280;46837;52.446;-1.930;2023-04-15T04:29:09;100038.09;;;5.93;85.35
60642;BME280;46837;52.446;-1.930;2023-04-15T04:30:09;100040.54;;;5.90;85.40
60642;BME280;46837;52.446;-1.930;2023-04-15T04:31:09;100038.84;;;5.86;85.49
60642;BME280;46837;52.446;-1.930;2023-04-15T04:32:09;100047.86;;;5.87;85.49
60642;BME280;46837;52.446;-1.930;2023-04-15T04:33:09;100050.14;;;5.87;85.60
60642;BME280;46837;52.446;-1.930;2023-04-15T04:34:09;100052.55;;;5.85;85.47
60642;BME280;46837;52.446;-1.930;2023-04-15T04:35:09;100052.21;;;5.82;85.49
60642;BME280;46837;52.446;-1.930;2023-04-15T04:36:09;100052.38;;;5.80;85.51
60642;BME280;46837;52.446;-1.930;2023-04-15T04:37:09;100052.14;;;5.78;85.61
60642;BME280;46837;52.446;-1.930;2023-04-15T04:38:09;100053.89;;;5.79;85.78
60642;BME280;46837;52.446;-1.930;2023-04-15T04:39:09;100053.91;;;5.78;85.68
60642;BME280;46837;52.446;-1.930;2023-04-15T04:40:09;100057.19;;;5.78;85.70
60642;BME280;46837;52.446;-1.930;2023-04-15T04:41:09;100058.73;;;5.74;85.66
60642;BME280;46837;52.446;-1.930;2023-04-15T04:42:09;100063.70;;;5.77;85.85
60642;BME280;46837;52.446;-1.930;2023-04-15T04:43:09;100064.44;;;5.75;85.68
60642;BME280;46837;52.446;-1.930;2023-04-15T04:44:09;100062.93;;;5.75;85.56
60642;BME280;46837;52.446;-1.930;2023-04-15T04:45:09;100067.86;;;5.75;85.51
60642;BME280;46837;52.446;-1.930;2023-04-15T04:46:09;100070.28;;;5.72;85.54
60642;BME280;46837;52.446;-1.930;2023-04-15T04:47:09;100067.89;;;5.72;85.55
60642;BME280;46837;52.446;-1.930;2023-04-15T04:48:09;100075.46;;;5.71;85.55
60642;BME280;46837;52.446;-1.930;2023-04-15T04:49:09;100077.42;;;5.69;85.56
60642;BME280;46837;52.446;-1.930;2023-04-15T04:50:09;100079.69;;;5.68;85.61
60642;BME280;46837;52.446;-1.930;2023-04-15T04:51:09;100079.90;;;5.63;85.71
60642;BME280;46837;52.446;-1.930;2023-04-15T04:52:09;100078.74;;;5.59;85.82
60642;BME280;46837;52.446;-1.930;2023-04-15T04:53:09;100083.34;;;5.59;85.87
60642;BME280;46837;52.446;-1.930;2023-04-15T04:54:09;100084.73;;;5.59;85.87
60642;BME280;46837;52.446;-1.930;2023-04-15T04:55:09;100086.89;;;5.57;85.87
60642;BME280;46837;52.446;-1.930;2023-04-15T04:56:09;100088.77;;;5.57;85.83
60642;BME280;46837;52.446;-1.930;2023-04-15T04:57:09;100092.35;;;5.54;85.75
60642;BME280;46837;52.446;-1.930;2023-04-15T04:58:09;100091.19;;;5.53;85.93
60642;BME280;46837;52.446;-1.930;2023-04-15T04:59:09;100089.12;;;5.51;85.94
60642;BME280;46837;52.446;-1.930;2023-04-15T05:00:09;100091.61;;;5.51;85.98
60642;BME280;46837;52.446;-1.930;2023-04-15T05:01:09;100092.32;;;5.50;85.89
60642;BME280;46837;52.446;-1.930;2023-04-15T05:02:09;100092.58;;;5.50;85.88
60642;BME280;46837;52.446;-1.930;2023-04-15T05:03:09;100095.85;;;5.46;85.91
60642;BME280;46837;52.446;-1.930;2023-04-15T05:04:09;100098.62;;;5.44;86.06
60642;BME280;46837;52.446;-1.930;2023-04-15T05:05:09;100101.61;;;5.44;86.17
60642;BME280;46837;52.446;-1.930;2023-04-15T05:06:10;100101.91;;;5.40;86.19
60642;BME280;46837;52.446;-1.930;2023-04-15T05:07:09;100103.80;;;5.41;86.33
60642;BME280;46837;52.446;-1.930;2023-04-15T05:08:09;100103.77;;;5.39;86.34
60642;BME280;46837;52.446;-1.930;2023-04-15T05:09:09;100109.32;;;5.38;86.40
60642;BME280;46837;52.446;-1.930;2023-04-15T05:10:09;100111.76;;;5.38;86.41
60642;BME280;46837;52.446;-1.930;2023-04-15T05:11:09;100113.75;;;5.38;86.35
60642;BME280;46837;52.446;-1.930;2023-04-15T05:12:09;100113.11;;;5.38;86.28
60642;BME280;46837;52.446;-1.930;2023-04-15T05:13:09;100116.47;;;5.38;86.21
60642;BME280;46837;52.446;-1.930;2023-04-15T05:14:09;100120.46;;;5.37;86.15
60642;BME280;46837;52.446;-1.930;2023-04-15T05:15:09;100120.21;;;5.38;86.16
60642;BME280;46837;52.446;-1.930;2023-04-15T05:16:09;100121.79;;;5.35;86.11